Relevés horaires Bierset (Belgique)


Relevés horaires à Bierset - Vendredi 23 Avr. 2021
Heure UTC1 Température [°C] Vent [km/h] Hum. [%] Pres.4 [hPa] Visi. [Km] Nébu. [octa] Préc.5 [mm] Cond.
2m. Res. Ros. Dir.2 Vit. Moy. Raf.3
23:00 6.6 5.7 1.7 NE 5.6 7.4 18.5 71 1027.8(0.0/3h) 20 1/8 -- --
22:00 7.4 6.6 1.6 ENE 5.6 7.4 9.3 67 1027.8(0.2/3h) 20 1/8 -- --
21:00 8.0 6.8 1.8 NE 7.4 7.4 13.0 65 1027.7(0.2/3h) 20 1/8 -- --
20:00 8.3 7.6 1.7 NE 5.6 7.4 13.0 63 1027.7(-0.1/3h) 20 1/8 -- --
19:00 9.4 8.9 1.5 NE 5.6 5.6 9.3 58 1027.4(-0.4/3h) 20 1/8 -- --
18:00 12.0 11.9 0.6 ENE 5.6 9.3 14.8 45 1027.2(-1.0/3h) 20 0/8 0/12h
--
17:00 13.0 13 2.3 NE 5.6 7.4 13.0 48 1027.2(-1.3/3h) 20 0/8 -- --
16:00 13.4 13.1 0.7 NE 7.4 7.4 14.8 42 1027.5(-1.5/3h) 20 1/8 -- --
15:00 13.3 13 0.1 NNE 7.4 9.3 14.8 40 1028.1(-1.1/3h) 20 1/8 -- --
14:00 13.2 13.2 -0.1 N 5.6 7.4 14.8 40 1028.5(-0.9/3h) 20 1/8 -- --
13:00 11.9 11.4 -0.2 NE 7.4 7.4 14.8 43 1029.1(-0.6/3h) 20 1/8 -- --
12:00 11.1 10.8 0.5 NE 5.6 9.3 14.8 48 1029.4(-0.5/3h) 20 1/8 0/6h
--
11:00 9.4 8.9 1.0 NE 5.6 7.4 14.8 56 1029.8(-0.2/3h) 20 1/8 -- --
10:00 8.1 6.9 0.6 NE 7.4 7.4 14.8 59 1030(0.1/3h) 20 1/8 -- --
09:00 7.2 5.9 0.7 NE 7.4 9.3 14.8 63 1030.2(0.6/3h) 20 1/8 -- --
08:00 5.8 3.8 0.7 ENE 9.3 9.3 14.8 70 1030.3(1.2/3h) 15 1/8 -- --
07:00 4.5 2.7 1.3 ENE 7.4 9.3 13.0 80 1030.2(1.3/3h) 15 0/8 -- --
06:00 2.2 2.2 0.7 NNE 3.7 5.6 13.0 90 1030(1.1/3h) 12 1/8 0/12h
--
05:00 1.2 1.2 -0.5 ENE 3.7 5.6 11.1 88 1029.5(0.8/3h) 15 1/8 -- --
04:00 1.7 1.7 0.1 NE 1.9 5.6 13.0 89 1029.1(0.4/3h) 20 1/8 -- --
03:00 1.9 1.9 0.1 NNO 1.9 3.7 7.4 88 1028.9(-0.1/3h) 20 1/8 -- --
02:00 2.1 2.1 0.1 NNE 3.7 3.7 7.4 87 1028.6(0.2/3h) 30 1/8 -- --
01:00 2.8 2.8 0.4 NE 3.7 3.7 7.4 84 1028.6(0.6/3h) 30 1/8 -- --
00:00 3.2 3.2 0.1 N 1.9 7.4 11.1 80 1028.7(0.6/3h) 30 2/8 0/6h
0/24h
--

1 Coordinated Universal Time. Actuellement il est 03:00 locale et 01:00 UTC.

2 Le vent souffle depuis la direction indiquée vers la direction oposée.

3 Les rafales max. sont disponible 40 min après l'heure du relevé.

4 Pour les stations d'altitude (plus de 600m) le géopotentiel du niveau le plus proche de la pression obligatoire est indiqué.

5 Les stations disposant d'un diffuseur peuvent indiquer "trace". Cela signifie que des précipitations ont touchés le sol mais que la quantité est inférieure à 0.1 mm.

Récapitulatif de la journée
Température [°C] Vent [km/h] Ensoleillement4 [h] Precipitations totale5 [mm] Pression [Hpa]
Min1 Max.2 Moy.3 Max. Min Max.
1.0 13.9 7.1 18.5 0 h 0 min 0 1027.2 1030.3

1 Température minimale relevée entre 18:00 UTC la veille et 18:00 UTC le jour donné.

2 Température maximale relevée entre 06:00 UTC le jour donné et 06:00 UTC le lendemain.

3 Vent moyen de la journée basé sur les relevés horaires.

4 Ensoleillement en heures relevé entre 06:00 UTC la veille et 06:00 UTC le jour donné.

5 Précipitations totales tombées entre 06:00 UTC la jour donné et 06:00 UTC le lendemain.

Graphiques horaires